sensor_id;sensor_type;location;lat;lon;timestamp;P1;durP1;ratioP1;P2;durP2;ratioP2
67503;SDS011;54351;49.108;1.502;2022-10-26T00:01:06;377.92;;;349.58;;
67503;SDS011;54351;49.108;1.502;2022-10-26T00:03:33;405.85;;;375.55;;
67503;SDS011;54351;49.108;1.502;2022-10-26T00:06:10;472.40;;;434.77;;
67503;SDS011;54351;49.108;1.502;2022-10-26T00:08:36;375.23;;;347.60;;
67503;SDS011;54351;49.108;1.502;2022-10-26T00:11:03;384.98;;;356.05;;
67503;SDS011;54351;49.108;1.502;2022-10-26T00:13:29;463.33;;;426.90;;
67503;SDS011;54351;49.108;1.502;2022-10-26T00:15:55;366.38;;;339.92;;
67503;SDS011;54351;49.108;1.502;2022-10-26T00:18:21;365.52;;;338.48;;
67503;SDS011;54351;49.108;1.502;2022-10-26T00:20:48;372.10;;;345.02;;
67503;SDS011;54351;49.108;1.502;2022-10-26T00:23:14;399.98;;;370.27;;
67503;SDS011;54351;49.108;1.502;2022-10-26T00:25:40;318.63;;;296.38;;
67503;SDS011;54351;49.108;1.502;2022-10-26T00:28:06;404.27;;;374.38;;
67503;SDS011;54351;49.108;1.502;2022-10-26T00:30:32;384.60;;;355.60;;
67503;SDS011;54351;49.108;1.502;2022-10-26T00:32:58;461.45;;;425.58;;
67503;SDS011;54351;49.108;1.502;2022-10-26T00:35:24;454.58;;;419.38;;
67503;SDS011;54351;49.108;1.502;2022-10-26T00:37:54;451.52;;;416.42;;
67503;SDS011;54351;49.108;1.502;2022-10-26T00:40:20;514.03;;;472.70;;
67503;SDS011;54351;49.108;1.502;2022-10-26T00:42:46;487.40;;;448.58;;
67503;SDS011;54351;49.108;1.502;2022-10-26T00:45:23;481.35;;;442.02;;
67503;SDS011;54351;49.108;1.502;2022-10-26T00:47:52;454.42;;;419.55;;
67503;SDS011;54351;49.108;1.502;2022-10-26T00:50:25;476.17;;;439.27;;
67503;SDS011;54351;49.108;1.502;2022-10-26T00:55:19;409.55;;;379.25;;
67503;SDS011;54351;49.108;1.502;2022-10-26T00:57:46;400.38;;;370.02;;
67503;SDS011;54351;49.108;1.502;2022-10-26T01:00:13;456.80;;;421.17;;
67503;SDS011;54351;49.108;1.502;2022-10-26T01:02:39;476.27;;;439.05;;
67503;SDS011;54351;49.108;1.502;2022-10-26T01:05:06;459.23;;;423.63;;
67503;SDS011;54351;49.108;1.502;2022-10-26T01:07:32;538.92;;;495.45;;
67503;SDS011;54351;49.108;1.502;2022-10-26T01:09:59;550.10;;;504.65;;
67503;SDS011;54351;49.108;1.502;2022-10-26T01:12:25;600.25;;;551.20;;
67503;SDS011;54351;49.108;1.502;2022-10-26T01:14:51;520.40;;;479.25;;
67503;SDS011;54351;49.108;1.502;2022-10-26T01:17:26;426.25;;;393.38;;
67503;SDS011;54351;49.108;1.502;2022-10-26T01:25:05;496.30;;;455.73;;
67503;SDS011;54351;49.108;1.502;2022-10-26T01:27:43;501.65;;;459.55;;
67503;SDS011;54351;49.108;1.502;2022-10-26T01:30:15;482.92;;;442.50;;
67503;SDS011;54351;49.108;1.502;2022-10-26T01:32:45;540.63;;;496.90;;
67503;SDS011;54351;49.108;1.502;2022-10-26T01:38:16;580.67;;;535.63;;
67503;SDS011;54351;49.108;1.502;2022-10-26T01:41:08;621.55;;;573.08;;
67503;SDS011;54351;49.108;1.502;2022-10-26T01:43:36;567.13;;;523.63;;
67503;SDS011;54351;49.108;1.502;2022-10-26T01:46:04;576.00;;;530.53;;
67503;SDS011;54351;49.108;1.502;2022-10-26T01:48:32;600.60;;;553.92;;
67503;SDS011;54351;49.108;1.502;2022-10-26T01:50:59;589.03;;;544.10;;
67503;SDS011;54351;49.108;1.502;2022-10-26T01:53:25;582.10;;;537.65;;
67503;SDS011;54351;49.108;1.502;2022-10-26T01:55:55;597.95;;;552.72;;
67503;SDS011;54351;49.108;1.502;2022-10-26T02:00:57;616.33;;;569.33;;
67503;SDS011;54351;49.108;1.502;2022-10-26T02:03:29;575.40;;;531.65;;
67503;SDS011;54351;49.108;1.502;2022-10-26T02:06:04;609.78;;;563.10;;
67503;SDS011;54351;49.108;1.502;2022-10-26T02:14:06;607.65;;;561.17;;
67503;SDS011;54351;49.108;1.502;2022-10-26T02:19:26;612.13;;;565.15;;
67503;SDS011;54351;49.108;1.502;2022-10-26T02:22:00;669.40;;;618.17;;
67503;SDS011;54351;49.108;1.502;2022-10-26T02:24:29;633.35;;;584.42;;
67503;SDS011;54351;49.108;1.502;2022-10-26T02:26:56;631.80;;;582.47;;
67503;SDS011;54351;49.108;1.502;2022-10-26T02:29:24;632.33;;;583.38;;
67503;SDS011;54351;49.108;1.502;2022-10-26T02:31:52;634.88;;;585.97;;
67503;SDS011;54351;49.108;1.502;2022-10-26T02:34:20;633.38;;;583.60;;
67503;SDS011;54351;49.108;1.502;2022-10-26T02:36:47;676.90;;;622.72;;
67503;SDS011;54351;49.108;1.502;2022-10-26T02:39:15;641.15;;;590.67;;
67503;SDS011;54351;49.108;1.502;2022-10-26T02:41:41;656.33;;;604.92;;
67503;SDS011;54351;49.108;1.502;2022-10-26T02:44:25;681.90;;;627.95;;
67503;SDS011;54351;49.108;1.502;2022-10-26T02:46:52;679.45;;;626.17;;
67503;SDS011;54351;49.108;1.502;2022-10-26T02:49:20;651.45;;;599.58;;
67503;SDS011;54351;49.108;1.502;2022-10-26T02:56:47;625.50;;;577.38;;
67503;SDS011;54351;49.108;1.502;2022-10-26T02:59:15;651.50;;;601.28;;
67503;SDS011;54351;49.108;1.502;2022-10-26T03:01:43;659.78;;;608.38;;
67503;SDS011;54351;49.108;1.502;2022-10-26T03:04:10;647.47;;;597.30;;
67503;SDS011;54351;49.108;1.502;2022-10-26T03:06:36;640.75;;;590.88;;
67503;SDS011;54351;49.108;1.502;2022-10-26T03:09:02;666.85;;;615.20;;
67503;SDS011;54351;49.108;1.502;2022-10-26T03:11:28;668.47;;;617.30;;
67503;SDS011;54351;49.108;1.502;2022-10-26T03:13:54;670.85;;;619.20;;
67503;SDS011;54351;49.108;1.502;2022-10-26T03:16:20;662.03;;;611.55;;
67503;SDS011;54351;49.108;1.502;2022-10-26T03:18:46;648.92;;;599.03;;
67503;SDS011;54351;49.108;1.502;2022-10-26T03:21:12;628.72;;;580.40;;
67503;SDS011;54351;49.108;1.502;2022-10-26T03:23:38;613.88;;;566.00;;
67503;SDS011;54351;49.108;1.502;2022-10-26T03:26:06;615.17;;;567.30;;
67503;SDS011;54351;49.108;1.502;2022-10-26T03:28:32;621.65;;;574.08;;
67503;SDS011;54351;49.108;1.502;2022-10-26T03:30:58;607.85;;;561.28;;
67503;SDS011;54351;49.108;1.502;2022-10-26T03:33:24;623.75;;;575.95;;
67503;SDS011;54351;49.108;1.502;2022-10-26T03:35:56;621.83;;;574.78;;
67503;SDS011;54351;49.108;1.502;2022-10-26T03:38:22;619.58;;;571.50;;
67503;SDS011;54351;49.108;1.502;2022-10-26T03:40:48;609.95;;;562.65;;
67503;SDS011;54351;49.108;1.502;2022-10-26T03:43:14;587.65;;;542.30;;
67503;SDS011;54351;49.108;1.502;2022-10-26T03:45:40;635.67;;;587.58;;
67503;SDS011;54351;49.108;1.502;2022-10-26T03:48:06;621.38;;;574.22;;
67503;SDS011;54351;49.108;1.502;2022-10-26T03:50:32;608.72;;;562.03;;
67503;SDS011;54351;49.108;1.502;2022-10-26T03:53:01;590.58;;;545.28;;
67503;SDS011;54351;49.108;1.502;2022-10-26T03:55:27;612.38;;;565.45;;
67503;SDS011;54351;49.108;1.502;2022-10-26T03:57:55;623.17;;;575.50;;
67503;SDS011;54351;49.108;1.502;2022-10-26T04:00:21;611.88;;;565.78;;
67503;SDS011;54351;49.108;1.502;2022-10-26T04:02:54;628.45;;;580.22;;
67503;SDS011;54351;49.108;1.502;2022-10-26T04:05:21;644.17;;;595.25;;
67503;SDS011;54351;49.108;1.502;2022-10-26T04:07:54;614.63;;;568.05;;
67503;SDS011;54351;49.108;1.502;2022-10-26T04:10:21;605.17;;;559.28;;
67503;SDS011;54351;49.108;1.502;2022-10-26T04:12:47;599.78;;;553.78;;
67503;SDS011;54351;49.108;1.502;2022-10-26T04:15:13;624.35;;;576.47;;
67503;SDS011;54351;49.108;1.502;2022-10-26T04:17:39;630.50;;;582.53;;
67503;SDS011;54351;49.108;1.502;2022-10-26T04:20:06;622.80;;;574.80;;
67503;SDS011;54351;49.108;1.502;2022-10-26T04:22:32;625.25;;;577.75;;
67503;SDS011;54351;49.108;1.502;2022-10-26T04:24:59;636.80;;;588.75;;
67503;SDS011;54351;49.108;1.502;2022-10-26T04:27:25;575.05;;;530.13;;
67503;SDS011;54351;49.108;1.502;2022-10-26T04:29:51;611.55;;;565.33;;
67503;SDS011;54351;49.108;1.502;2022-10-26T04:32:17;592.38;;;546.03;;
67503;SDS011;54351;49.108;1.502;2022-10-26T04:34:43;600.15;;;554.15;;
67503;SDS011;54351;49.108;1.502;2022-10-26T04:37:09;583.08;;;537.50;;
67503;SDS011;54351;49.108;1.502;2022-10-26T04:39:35;596.83;;;551.15;;
67503;SDS011;54351;49.108;1.502;2022-10-26T04:42:02;616.70;;;569.25;;
67503;SDS011;54351;49.108;1.502;2022-10-26T04:44:28;635.85;;;587.03;;
67503;SDS011;54351;49.108;1.502;2022-10-26T04:47:03;596.10;;;550.13;;
67503;SDS011;54351;49.108;1.502;2022-10-26T04:49:29;587.05;;;541.10;;
67503;SDS011;54351;49.108;1.502;2022-10-26T04:51:59;579.83;;;534.10;;
67503;SDS011;54351;49.108;1.502;2022-10-26T04:54:31;519.88;;;478.10;;
67503;SDS011;54351;49.108;1.502;2022-10-26T04:56:57;524.88;;;482.80;;
67503;SDS011;54351;49.108;1.502;2022-10-26T04:59:34;576.80;;;530.83;;
67503;SDS011;54351;49.108;1.502;2022-10-26T05:02:00;531.65;;;489.95;;
67503;SDS011;54351;49.108;1.502;2022-10-26T05:04:32;533.15;;;491.42;;
67503;SDS011;54351;49.108;1.502;2022-10-26T05:09:30;503.13;;;465.25;;
67503;SDS011;54351;49.108;1.502;2022-10-26T05:12:01;502.48;;;463.58;;
67503;SDS011;54351;49.108;1.502;2022-10-26T05:14:28;495.85;;;458.05;;
67503;SDS011;54351;49.108;1.502;2022-10-26T05:16:56;529.53;;;488.00;;
67503;SDS011;54351;49.108;1.502;2022-10-26T05:19:25;455.20;;;420.02;;
67503;SDS011;54351;49.108;1.502;2022-10-26T05:21:51;495.10;;;456.17;;
67503;SDS011;54351;49.108;1.502;2022-10-26T05:24:26;486.23;;;448.60;;
67503;SDS011;54351;49.108;1.502;2022-10-26T05:26:55;478.45;;;441.42;;
67503;SDS011;54351;49.108;1.502;2022-10-26T05:29:21;437.02;;;403.25;;
67503;SDS011;54351;49.108;1.502;2022-10-26T05:31:47;457.92;;;422.73;;
67503;SDS011;54351;49.108;1.502;2022-10-26T05:34:16;440.95;;;407.17;;
67503;SDS011;54351;49.108;1.502;2022-10-26T05:36:43;505.80;;;466.80;;
67503;SDS011;54351;49.108;1.502;2022-10-26T05:39:09;567.60;;;523.72;;
67503;SDS011;54351;49.108;1.502;2022-10-26T05:41:35;546.67;;;504.13;;
67503;SDS011;54351;49.108;1.502;2022-10-26T05:44:01;513.50;;;473.10;;
67503;SDS011;54351;49.108;1.502;2022-10-26T05:46:27;576.60;;;530.92;;
67503;SDS011;54351;49.108;1.502;2022-10-26T05:48:53;500.42;;;461.52;;
67503;SDS011;54351;49.108;1.502;2022-10-26T05:51:22;463.20;;;426.60;;
67503;SDS011;54351;49.108;1.502;2022-10-26T05:53:51;501.10;;;461.98;;
67503;SDS011;54351;49.108;1.502;2022-10-26T05:56:38;516.67;;;476.38;;
67503;SDS011;54351;49.108;1.502;2022-10-26T05:59:26;477.35;;;440.73;;
67503;SDS011;54351;49.108;1.502;2022-10-26T06:01:58;430.08;;;397.48;;
67503;SDS011;54351;49.108;1.502;2022-10-26T06:07:30;282.35;;;263.55;;
67503;SDS011;54351;49.108;1.502;2022-10-26T06:09:57;263.50;;;246.00;;
67503;SDS011;54351;49.108;1.502;2022-10-26T06:12:23;289.58;;;270.20;;
67503;SDS011;54351;49.108;1.502;2022-10-26T06:14:50;272.75;;;254.18;;
67503;SDS011;54351;49.108;1.502;2022-10-26T06:27:51;307.30;;;286.88;;
67503;SDS011;54351;49.108;1.502;2022-10-26T06:30:23;260.27;;;242.60;;
67503;SDS011;54351;49.108;1.502;2022-10-26T06:32:49;300.00;;;279.85;;
67503;SDS011;54351;49.108;1.502;2022-10-26T06:37:49;284.65;;;265.75;;
67503;SDS011;54351;49.108;1.502;2022-10-26T06:40:17;322.42;;;300.58;;
67503;SDS011;54351;49.108;1.502;2022-10-26T06:42:43;333.75;;;311.48;;
67503;SDS011;54351;49.108;1.502;2022-10-26T06:45:13;254.50;;;238.32;;
67503;SDS011;54351;49.108;1.502;2022-10-26T06:47:42;289.73;;;270.60;;
67503;SDS011;54351;49.108;1.502;2022-10-26T06:50:54;296.75;;;276.90;;
67503;SDS011;54351;49.108;1.502;2022-10-26T06:55:49;320.20;;;299.10;;
67503;SDS011;54351;49.108;1.502;2022-10-26T06:58:19;327.30;;;305.80;;
67503;SDS011;54351;49.108;1.502;2022-10-26T07:00:50;298.52;;;278.08;;
67503;SDS011;54351;49.108;1.502;2022-10-26T07:03:17;334.52;;;311.23;;
67503;SDS011;54351;49.108;1.502;2022-10-26T07:05:44;333.70;;;310.73;;
67503;SDS011;54351;49.108;1.502;2022-10-26T07:08:10;296.65;;;277.25;;
67503;SDS011;54351;49.108;1.502;2022-10-26T07:10:53;321.38;;;299.33;;
67503;SDS011;54351;49.108;1.502;2022-10-26T07:13:19;304.63;;;284.65;;
67503;SDS011;54351;49.108;1.502;2022-10-26T07:15:45;268.35;;;250.63;;
67503;SDS011;54351;49.108;1.502;2022-10-26T07:18:12;292.48;;;273.60;;
67503;SDS011;54351;49.108;1.502;2022-10-26T07:20:39;335.60;;;312.73;;
67503;SDS011;54351;49.108;1.502;2022-10-26T07:23:09;298.27;;;277.90;;
67503;SDS011;54351;49.108;1.502;2022-10-26T07:25:38;345.98;;;322.80;;
67503;SDS011;54351;49.108;1.502;2022-10-26T07:28:08;283.85;;;265.45;;
67503;SDS011;54351;49.108;1.502;2022-10-26T07:30:37;308.58;;;287.42;;
67503;SDS011;54351;49.108;1.502;2022-10-26T07:33:05;291.15;;;271.92;;
67503;SDS011;54351;49.108;1.502;2022-10-26T07:35:32;285.58;;;266.70;;
67503;SDS011;54351;49.108;1.502;2022-10-26T07:38:04;273.70;;;255.45;;
67503;SDS011;54351;49.108;1.502;2022-10-26T07:40:30;292.80;;;273.98;;
67503;SDS011;54351;49.108;1.502;2022-10-26T07:42:56;294.20;;;274.25;;
67503;SDS011;54351;49.108;1.502;2022-10-26T07:45:26;280.85;;;262.77;;
67503;SDS011;54351;49.108;1.502;2022-10-26T07:47:52;295.70;;;276.73;;
67503;SDS011;54351;49.108;1.502;2022-10-26T07:50:18;279.00;;;260.45;;
67503;SDS011;54351;49.108;1.502;2022-10-26T07:52:44;285.05;;;265.77;;
67503;SDS011;54351;49.108;1.502;2022-10-26T07:55:11;267.55;;;250.30;;
67503;SDS011;54351;49.108;1.502;2022-10-26T07:57:45;284.80;;;266.25;;
67503;SDS011;54351;49.108;1.502;2022-10-26T08:00:11;271.13;;;253.77;;
67503;SDS011;54351;49.108;1.502;2022-10-26T08:02:37;262.10;;;245.50;;
67503;SDS011;54351;49.108;1.502;2022-10-26T08:05:06;277.02;;;258.38;;
67503;SDS011;54351;49.108;1.502;2022-10-26T08:07:32;286.55;;;267.25;;
67503;SDS011;54351;49.108;1.502;2022-10-26T08:09:58;276.83;;;258.98;;
67503;SDS011;54351;49.108;1.502;2022-10-26T08:12:28;275.80;;;258.02;;
67503;SDS011;54351;49.108;1.502;2022-10-26T08:14:55;281.40;;;262.80;;
67503;SDS011;54351;49.108;1.502;2022-10-26T08:17:24;305.65;;;285.13;;
67503;SDS011;54351;49.108;1.502;2022-10-26T08:19:50;287.38;;;267.80;;
67503;SDS011;54351;49.108;1.502;2022-10-26T08:22:16;296.45;;;277.20;;
67503;SDS011;54351;49.108;1.502;2022-10-26T08:24:42;289.73;;;270.38;;
67503;SDS011;54351;49.108;1.502;2022-10-26T08:27:13;274.77;;;256.75;;
67503;SDS011;54351;49.108;1.502;2022-10-26T08:29:40;252.45;;;236.20;;
67503;SDS011;54351;49.108;1.502;2022-10-26T08:32:06;256.17;;;239.65;;
67503;SDS011;54351;49.108;1.502;2022-10-26T08:34:51;271.23;;;253.10;;
67503;SDS011;54351;49.108;1.502;2022-10-26T08:37:17;298.38;;;278.25;;
67503;SDS011;54351;49.108;1.502;2022-10-26T08:39:44;282.95;;;263.30;;
67503;SDS011;54351;49.108;1.502;2022-10-26T08:42:13;284.80;;;264.63;;
67503;SDS011;54351;49.108;1.502;2022-10-26T08:47:19;316.23;;;293.50;;
67503;SDS011;54351;49.108;1.502;2022-10-26T08:49:59;386.65;;;355.33;;
67503;SDS011;54351;49.108;1.502;2022-10-26T08:52:31;385.30;;;355.90;;
67503;SDS011;54351;49.108;1.502;2022-10-26T08:55:01;366.90;;;337.88;;
67503;SDS011;54351;49.108;1.502;2022-10-26T08:57:35;352.27;;;324.92;;
67503;SDS011;54351;49.108;1.502;2022-10-26T09:00:27;309.65;;;284.00;;
67503;SDS011;54351;49.108;1.502;2022-10-26T09:02:54;480.08;;;438.65;;
67503;SDS011;54351;49.108;1.502;2022-10-26T09:05:21;505.85;;;466.40;;
67503;SDS011;54351;49.108;1.502;2022-10-26T09:25:50;515.20;;;475.27;;
67503;SDS011;54351;49.108;1.502;2022-10-26T09:28:18;578.30;;;531.10;;
67503;SDS011;54351;49.108;1.502;2022-10-26T09:30:45;565.25;;;518.83;;
67503;SDS011;54351;49.108;1.502;2022-10-26T09:33:13;528.95;;;486.70;;
67503;SDS011;54351;49.108;1.502;2022-10-26T09:35:45;555.05;;;514.85;;
67503;SDS011;54351;49.108;1.502;2022-10-26T09:38:27;565.70;;;526.53;;
67503;SDS011;54351;49.108;1.502;2022-10-26T09:43:38;540.08;;;500.73;;
67503;SDS011;54351;49.108;1.502;2022-10-26T09:46:06;417.58;;;391.42;;
67503;SDS011;54351;49.108;1.502;2022-10-26T09:51:05;437.80;;;410.00;;
67503;SDS011;54351;49.108;1.502;2022-10-26T09:53:31;429.27;;;401.65;;
67503;SDS011;54351;49.108;1.502;2022-10-26T09:56:03;438.90;;;411.05;;
67503;SDS011;54351;49.108;1.502;2022-10-26T10:01:30;416.77;;;390.63;;
67503;SDS011;54351;49.108;1.502;2022-10-26T10:04:30;467.42;;;435.92;;
67503;SDS011;54351;49.108;1.502;2022-10-26T10:09:25;427.42;;;399.30;;
67503;SDS011;54351;49.108;1.502;2022-10-26T10:11:57;473.52;;;438.92;;
67503;SDS011;54351;49.108;1.502;2022-10-26T10:19:24;605.80;;;558.10;;
67503;SDS011;54351;49.108;1.502;2022-10-26T10:21:52;568.45;;;523.42;;
67503;SDS011;54351;49.108;1.502;2022-10-26T10:29:23;614.53;;;567.00;;
67503;SDS011;54351;49.108;1.502;2022-10-26T10:32:00;571.15;;;524.25;;
67503;SDS011;54351;49.108;1.502;2022-10-26T10:34:28;662.08;;;611.15;;
67503;SDS011;54351;49.108;1.502;2022-10-26T10:36:55;675.30;;;623.03;;
67503;SDS011;54351;49.108;1.502;2022-10-26T10:39:25;754.40;;;696.78;;
67503;SDS011;54351;49.108;1.502;2022-10-26T10:41:56;779.80;;;719.67;;
67503;SDS011;54351;49.108;1.502;2022-10-26T10:44:23;770.53;;;710.33;;
67503;SDS011;54351;49.108;1.502;2022-10-26T10:47:00;694.22;;;640.78;;
67503;SDS011;54351;49.108;1.502;2022-10-26T10:49:27;687.42;;;634.00;;
67503;SDS011;54351;49.108;1.502;2022-10-26T10:51:54;732.92;;;674.90;;
67503;SDS011;54351;49.108;1.502;2022-10-26T10:56:54;689.83;;;634.83;;
67503;SDS011;54351;49.108;1.502;2022-10-26T10:59:27;753.25;;;692.75;;
67503;SDS011;54351;49.108;1.502;2022-10-26T11:07:16;803.63;;;739.75;;
67503;SDS011;54351;49.108;1.502;2022-10-26T11:09:52;659.33;;;606.17;;
67503;SDS011;54351;49.108;1.502;2022-10-26T11:12:23;677.40;;;621.92;;
67503;SDS011;54351;49.108;1.502;2022-10-26T11:14:53;766.80;;;704.53;;
67503;SDS011;54351;49.108;1.502;2022-10-26T11:17:24;724.22;;;663.22;;
67503;SDS011;54351;49.108;1.502;2022-10-26T11:20:03;751.13;;;688.20;;
67503;SDS011;54351;49.108;1.502;2022-10-26T11:22:35;722.90;;;662.03;;
67503;SDS011;54351;49.108;1.502;2022-10-26T11:25:04;699.85;;;641.33;;
67503;SDS011;54351;49.108;1.502;2022-10-26T11:27:33;722.47;;;660.90;;
67503;SDS011;54351;49.108;1.502;2022-10-26T11:30:22;667.35;;;612.15;;
67503;SDS011;54351;49.108;1.502;2022-10-26T11:33:04;716.75;;;656.30;;
67503;SDS011;54351;49.108;1.502;2022-10-26T11:43:40;745.75;;;681.60;;
67503;SDS011;54351;49.108;1.502;2022-10-26T11:48:42;735.00;;;671.53;;
67503;SDS011;54351;49.108;1.502;2022-10-26T11:51:30;725.70;;;664.88;;
67503;SDS011;54351;49.108;1.502;2022-10-26T11:54:00;739.05;;;677.60;;
67503;SDS011;54351;49.108;1.502;2022-10-26T11:56:30;718.67;;;658.17;;
67503;SDS011;54351;49.108;1.502;2022-10-26T11:58:57;716.55;;;657.25;;
67503;SDS011;54351;49.108;1.502;2022-10-26T12:01:25;705.00;;;647.33;;
67503;SDS011;54351;49.108;1.502;2022-10-26T12:03:52;539.40;;;496.00;;
67503;SDS011;54351;49.108;1.502;2022-10-26T12:06:34;672.83;;;618.40;;
67503;SDS011;54351;49.108;1.502;2022-10-26T12:09:37;546.33;;;503.90;;
67503;SDS011;54351;49.108;1.502;2022-10-26T12:17:35;661.03;;;608.08;;
67503;SDS011;54351;49.108;1.502;2022-10-26T12:22:44;569.47;;;523.20;;
67503;SDS011;54351;49.108;1.502;2022-10-26T12:25:19;660.80;;;607.85;;
67503;SDS011;54351;49.108;1.502;2022-10-26T12:33:01;581.67;;;534.95;;
67503;SDS011;54351;49.108;1.502;2022-10-26T12:41:21;702.80;;;646.75;;
67503;SDS011;54351;49.108;1.502;2022-10-26T12:43:48;648.50;;;597.10;;
67503;SDS011;54351;49.108;1.502;2022-10-26T12:49:17;639.28;;;589.10;;
67503;SDS011;54351;49.108;1.502;2022-10-26T12:56:30;676.60;;;623.78;;
67503;SDS011;54351;49.108;1.502;2022-10-26T12:59:03;623.78;;;576.28;;
67503;SDS011;54351;49.108;1.502;2022-10-26T13:01:35;546.35;;;505.38;;
67503;SDS011;54351;49.108;1.502;2022-10-26T13:04:12;536.72;;;495.35;;
67503;SDS011;54351;49.108;1.502;2022-10-26T13:09:15;678.45;;;625.15;;
67503;SDS011;54351;49.108;1.502;2022-10-26T13:11:43;686.55;;;631.08;;
67503;SDS011;54351;49.108;1.502;2022-10-26T13:17:04;604.38;;;558.42;;
67503;SDS011;54351;49.108;1.502;2022-10-26T13:19:44;621.80;;;573.05;;
67503;SDS011;54351;49.108;1.502;2022-10-26T13:22:15;685.30;;;630.67;;
67503;SDS011;54351;49.108;1.502;2022-10-26T13:24:48;737.40;;;675.00;;
67503;SDS011;54351;49.108;1.502;2022-10-26T13:32:47;596.88;;;552.05;;
67503;SDS011;54351;49.108;1.502;2022-10-26T13:35:26;654.03;;;602.70;;
67503;SDS011;54351;49.108;1.502;2022-10-26T13:37:54;630.20;;;582.47;;
67503;SDS011;54351;49.108;1.502;2022-10-26T13:40:31;586.30;;;542.50;;
67503;SDS011;54351;49.108;1.502;2022-10-26T13:43:05;406.98;;;378.70;;
67503;SDS011;54351;49.108;1.502;2022-10-26T13:48:37;300.08;;;281.00;;
67503;SDS011;54351;49.108;1.502;2022-10-26T13:51:12;233.18;;;219.13;;
67503;SDS011;54351;49.108;1.502;2022-10-26T13:56:31;89.95;;;84.53;;
67503;SDS011;54351;49.108;1.502;2022-10-26T13:59:08;166.65;;;156.32;;
67503;SDS011;54351;49.108;1.502;2022-10-26T14:01:35;207.27;;;194.48;;
67503;SDS011;54351;49.108;1.502;2022-10-26T14:04:14;271.13;;;253.60;;
67503;SDS011;54351;49.108;1.502;2022-10-26T14:06:41;74.22;;;69.53;;
67503;SDS011;54351;49.108;1.502;2022-10-26T14:09:12;227.23;;;213.63;;
67503;SDS011;54351;49.108;1.502;2022-10-26T14:11:43;98.25;;;92.32;;
67503;SDS011;54351;49.108;1.502;2022-10-26T14:14:13;56.38;;;52.03;;
67503;SDS011;54351;49.108;1.502;2022-10-26T14:16:42;96.80;;;90.07;;
67503;SDS011;54351;49.108;1.502;2022-10-26T14:19:19;76.55;;;71.68;;
67503;SDS011;54351;49.108;1.502;2022-10-26T14:21:47;265.58;;;247.18;;
67503;SDS011;54351;49.108;1.502;2022-10-26T14:24:21;158.45;;;146.75;;
67503;SDS011;54351;49.108;1.502;2022-10-26T14:26:47;138.40;;;130.13;;
67503;SDS011;54351;49.108;1.502;2022-10-26T14:29:17;201.15;;;187.88;;
67503;SDS011;54351;49.108;1.502;2022-10-26T14:31:44;219.88;;;206.73;;
67503;SDS011;54351;49.108;1.502;2022-10-26T14:34:11;164.57;;;154.35;;
67503;SDS011;54351;49.108;1.502;2022-10-26T14:39:31;423.63;;;393.98;;
67503;SDS011;54351;49.108;1.502;2022-10-26T14:41:59;398.45;;;370.92;;
67503;SDS011;54351;49.108;1.502;2022-10-26T14:44:26;358.42;;;334.67;;
67503;SDS011;54351;49.108;1.502;2022-10-26T14:46:53;257.92;;;242.02;;
67503;SDS011;54351;49.108;1.502;2022-10-26T14:49:21;271.27;;;254.43;;
67503;SDS011;54351;49.108;1.502;2022-10-26T14:51:57;406.88;;;378.58;;
67503;SDS011;54351;49.108;1.502;2022-10-26T14:54:25;364.75;;;340.20;;
67503;SDS011;54351;49.108;1.502;2022-10-26T14:56:52;359.63;;;335.40;;
67503;SDS011;54351;49.108;1.502;2022-10-26T14:59:28;490.60;;;453.48;;
67503;SDS011;54351;49.108;1.502;2022-10-26T15:10:52;403.45;;;376.02;;
67503;SDS011;54351;49.108;1.502;2022-10-26T15:13:30;251.32;;;235.30;;
67503;SDS011;54351;49.108;1.502;2022-10-26T15:15:57;224.00;;;209.27;;
67503;SDS011;54351;49.108;1.502;2022-10-26T15:18:24;162.93;;;153.05;;
67503;SDS011;54351;49.108;1.502;2022-10-26T15:20:54;189.52;;;177.93;;
67503;SDS011;54351;49.108;1.502;2022-10-26T15:23:21;256.17;;;240.10;;
67503;SDS011;54351;49.108;1.502;2022-10-26T15:25:49;224.38;;;210.57;;
67503;SDS011;54351;49.108;1.502;2022-10-26T15:28:36;189.10;;;178.05;;
67503;SDS011;54351;49.108;1.502;2022-10-26T15:33:39;376.67;;;351.27;;
67503;SDS011;54351;49.108;1.502;2022-10-26T15:38:42;468.02;;;434.33;;
67503;SDS011;54351;49.108;1.502;2022-10-26T15:41:16;496.15;;;460.27;;
67503;SDS011;54351;49.108;1.502;2022-10-26T15:43:47;544.40;;;503.40;;
67503;SDS011;54351;49.108;1.502;2022-10-26T15:46:13;555.17;;;514.08;;
67503;SDS011;54351;49.108;1.502;2022-10-26T15:48:43;595.35;;;549.92;;
67503;SDS011;54351;49.108;1.502;2022-10-26T15:51:11;619.10;;;571.33;;
67503;SDS011;54351;49.108;1.502;2022-10-26T15:53:38;628.03;;;578.53;;
67503;SDS011;54351;49.108;1.502;2022-10-26T15:56:04;641.38;;;590.13;;
67503;SDS011;54351;49.108;1.502;2022-10-26T15:58:35;652.42;;;599.58;;
67503;SDS011;54351;49.108;1.502;2022-10-26T16:01:24;663.10;;;609.72;;
67503;SDS011;54351;49.108;1.502;2022-10-26T16:03:51;676.03;;;621.42;;
67503;SDS011;54351;49.108;1.502;2022-10-26T16:06:53;681.65;;;626.67;;
67503;SDS011;54351;49.108;1.502;2022-10-26T16:12:50;672.08;;;617.05;;
67503;SDS011;54351;49.108;1.502;2022-10-26T16:21:44;703.25;;;644.00;;
67503;SDS011;54351;49.108;1.502;2022-10-26T17:23:21;779.40;;;719.20;;
67503;SDS011;54351;49.108;1.502;2022-10-26T17:25:48;779.33;;;717.72;;
67503;SDS011;54351;49.108;1.502;2022-10-26T17:37:58;596.47;;;549.47;;
67503;SDS011;54351;49.108;1.502;2022-10-26T17:43:43;463.73;;;426.15;;
67503;SDS011;54351;49.108;1.502;2022-10-26T17:52:34;358.38;;;329.60;;
67503;SDS011;54351;49.108;1.502;2022-10-26T17:55:21;373.17;;;342.08;;
67503;SDS011;54351;49.108;1.502;2022-10-26T17:58:02;354.83;;;326.17;;
67503;SDS011;54351;49.108;1.502;2022-10-26T18:00:34;362.77;;;334.38;;
67503;SDS011;54351;49.108;1.502;2022-10-26T18:03:03;378.70;;;348.50;;
67503;SDS011;54351;49.108;1.502;2022-10-26T18:05:32;384.48;;;354.27;;
67503;SDS011;54351;49.108;1.502;2022-10-26T18:08:02;348.70;;;321.52;;
67503;SDS011;54351;49.108;1.502;2022-10-26T18:10:31;346.17;;;318.42;;
67503;SDS011;54351;49.108;1.502;2022-10-26T18:12:57;339.98;;;313.80;;
67503;SDS011;54351;49.108;1.502;2022-10-26T18:15:23;338.45;;;312.75;;
67503;SDS011;54351;49.108;1.502;2022-10-26T18:17:59;299.85;;;277.17;;
67503;SDS011;54351;49.108;1.502;2022-10-26T18:20:45;370.20;;;342.73;;
67503;SDS011;54351;49.108;1.502;2022-10-26T18:23:30;341.20;;;315.63;;
67503;SDS011;54351;49.108;1.502;2022-10-26T18:32:26;388.05;;;360.05;;
67503;SDS011;54351;49.108;1.502;2022-10-26T18:34:52;404.80;;;375.20;;